createdAt,value
2022-08-19T00:01:45.968Z,19.90
2022-08-19T00:05:34.983Z,19.90
2022-08-19T00:09:19.881Z,19.80
2022-08-19T00:13:01.742Z,19.80
2022-08-19T00:16:45.838Z,19.80
2022-08-19T00:20:27.965Z,19.80
2022-08-19T00:24:12.232Z,19.80
2022-08-19T00:27:56.984Z,19.80
2022-08-19T00:31:39.068Z,19.80
2022-08-19T00:35:21.006Z,19.80
2022-08-19T00:39:03.090Z,19.80
2022-08-19T00:42:46.331Z,19.80
2022-08-19T00:46:28.965Z,19.90
2022-08-19T00:50:13.703Z,19.90
2022-08-19T00:53:57.982Z,19.90
2022-08-19T00:57:43.022Z,19.90
2022-08-19T01:01:25.206Z,19.90
2022-08-19T01:05:12.492Z,19.90
2022-08-19T01:08:56.186Z,19.90
2022-08-19T01:12:38.864Z,19.90
2022-08-19T01:16:23.279Z,19.90
2022-08-19T01:20:08.528Z,19.90
2022-08-19T01:23:50.810Z,19.80
2022-08-19T01:27:44.419Z,19.80
2022-08-19T01:31:32.707Z,19.70
2022-08-19T01:35:17.949Z,19.70
2022-08-19T01:39:02.577Z,19.70
2022-08-19T01:42:44.551Z,19.60
2022-08-19T01:46:26.517Z,19.60
2022-08-19T01:50:11.084Z,19.60
2022-08-19T01:53:53.185Z,19.60
2022-08-19T01:57:35.558Z,19.50
2022-08-19T02:01:18.403Z,19.50
2022-08-19T02:05:00.494Z,19.40
2022-08-19T02:08:42.490Z,19.30
2022-08-19T02:12:24.426Z,19.30
2022-08-19T02:16:06.660Z,19.20
2022-08-19T02:19:49.938Z,19.10
2022-08-19T02:23:32.768Z,19.00
2022-08-19T02:27:15.670Z,18.90
2022-08-19T02:30:57.681Z,18.80
2022-08-19T02:34:39.615Z,18.70
2022-08-19T02:38:27.651Z,18.70
2022-08-19T02:42:09.978Z,18.60
2022-08-19T02:45:52.381Z,18.50
2022-08-19T02:49:34.643Z,18.50
2022-08-19T02:53:16.894Z,18.50
2022-08-19T02:56:59.457Z,18.60
2022-08-19T03:00:53.407Z,18.60
2022-08-19T03:04:35.623Z,18.60
2022-08-19T03:08:17.604Z,18.60
2022-08-19T03:11:59.892Z,18.60
2022-08-19T03:15:44.250Z,18.60
2022-08-19T03:19:26.247Z,18.60
2022-08-19T03:23:08.187Z,18.60
2022-08-19T03:26:58.242Z,18.60
2022-08-19T03:30:44.745Z,18.60
2022-08-19T03:34:29.717Z,18.60
2022-08-19T03:38:11.668Z,18.60
2022-08-19T03:42:32.229Z,18.60
2022-08-19T03:46:21.577Z,18.60
2022-08-19T03:50:04.170Z,18.60
2022-08-19T03:53:46.864Z,18.60
2022-08-19T03:57:31.949Z,18.60
2022-08-19T04:01:18.639Z,18.60
2022-08-19T04:05:00.662Z,18.50
2022-08-19T04:08:44.334Z,18.50
2022-08-19T04:12:26.293Z,18.50
2022-08-19T04:16:11.198Z,18.50
2022-08-19T04:19:53.196Z,18.50
2022-08-19T04:23:39.522Z,18.50
2022-08-19T04:27:27.541Z,18.50
2022-08-19T04:31:17.969Z,18.50
2022-08-19T04:35:02.175Z,18.50
2022-08-19T04:39:06.558Z,18.50
2022-08-19T04:42:48.777Z,18.40
2022-08-19T04:46:40.677Z,18.40
2022-08-19T04:50:33.982Z,18.40
2022-08-19T04:54:37.002Z,18.30
2022-08-19T04:58:19.839Z,18.30
2022-08-19T05:02:02.176Z,18.30
2022-08-19T05:05:51.665Z,18.30
2022-08-19T05:09:57.136Z,18.30
2022-08-19T05:13:35.686Z,18.20
2022-08-19T05:17:27.508Z,18.20
2022-08-19T05:21:30.770Z,18.20
2022-08-19T05:25:16.436Z,18.10
2022-08-19T05:28:58.346Z,18.00
2022-08-19T05:32:41.212Z,18.10
2022-08-19T05:36:23.125Z,18.00
2022-08-19T05:40:05.781Z,17.90
2022-08-19T05:43:47.758Z,17.90
2022-08-19T05:47:29.699Z,17.80
2022-08-19T05:51:12.440Z,17.80
2022-08-19T05:54:56.828Z,17.70
2022-08-19T05:58:39.645Z,17.70
2022-08-19T06:02:21.642Z,17.70
2022-08-19T06:06:03.780Z,17.60
2022-08-19T06:09:58.871Z,17.70
2022-08-19T06:13:46.077Z,17.60
2022-08-19T06:17:28.041Z,17.60
2022-08-19T06:21:10.157Z,17.70
2022-08-19T06:24:53.711Z,17.70
2022-08-19T06:28:35.654Z,17.80
2022-08-19T06:32:19.879Z,17.90
2022-08-19T06:36:01.879Z,18.00
2022-08-19T06:39:45.401Z,18.20
2022-08-19T06:43:28.092Z,18.30
2022-08-19T06:47:23.950Z,18.40
2022-08-19T06:51:08.763Z,18.50
2022-08-19T06:54:56.511Z,18.60
2022-08-19T06:58:39.438Z,18.80
2022-08-19T07:02:21.834Z,18.90
2022-08-19T07:06:41.213Z,19.20
2022-08-19T07:10:15.740Z,19.50
2022-08-19T07:13:59.367Z,20.00
2022-08-19T07:17:42.215Z,20.20
2022-08-19T07:21:29.649Z,20.20
2022-08-19T07:25:14.306Z,20.00
2022-08-19T07:28:58.521Z,19.80
2022-08-19T07:32:41.518Z,19.80
2022-08-19T07:36:33.184Z,19.70
2022-08-19T07:40:15.354Z,19.80
2022-08-19T07:43:58.080Z,19.90
2022-08-19T07:47:49.072Z,20.00
2022-08-19T07:51:36.737Z,20.20
2022-08-19T07:55:41.080Z,20.40
2022-08-19T07:59:25.586Z,20.60
2022-08-19T08:03:07.606Z,20.90
2022-08-19T08:07:08.170Z,21.20
2022-08-19T08:10:53.107Z,21.60
2022-08-19T08:14:48.403Z,21.90
2022-08-19T08:18:30.650Z,22.10
2022-08-19T08:22:36.191Z,22.20
2022-08-19T08:26:19.424Z,22.20
2022-08-19T08:30:02.946Z,22.10
2022-08-19T08:33:45.802Z,22.10
2022-08-19T08:37:27.726Z,22.10
2022-08-19T08:41:20.644Z,22.10
2022-08-19T08:45:02.729Z,22.10
2022-08-19T08:49:04.688Z,22.20
2022-08-19T08:52:52.270Z,22.20
2022-08-19T08:56:34.688Z,22.60
2022-08-19T09:00:20.880Z,23.10
2022-08-19T09:04:09.638Z,23.50
2022-08-19T09:07:59.848Z,23.60
2022-08-19T09:16:32.025Z,23.70
2022-08-19T09:20:29.744Z,23.80
2022-08-19T09:24:23.571Z,23.60
2022-08-19T09:28:22.071Z,23.50
2022-08-19T09:32:05.133Z,23.50
2022-08-19T09:36:09.509Z,23.70
2022-08-19T09:39:51.959Z,24.30
2022-08-19T09:43:44.377Z,24.90
2022-08-19T09:47:29.933Z,25.70
2022-08-19T09:51:16.718Z,26.60
2022-08-19T09:54:58.796Z,27.40
2022-08-19T09:58:40.958Z,28.10
2022-08-19T10:02:22.894Z,28.60
2022-08-19T10:06:14.896Z,28.90
2022-08-19T10:09:59.465Z,28.70
2022-08-19T10:13:41.734Z,28.50
2022-08-19T10:17:26.779Z,28.30
2022-08-19T10:21:20.685Z,28.20
2022-08-19T10:25:02.742Z,28.00
2022-08-19T10:28:47.087Z,28.50
2022-08-19T10:32:33.946Z,28.70
2022-08-19T10:36:23.597Z,28.90
2022-08-19T10:40:08.819Z,29.20
2022-08-19T10:43:55.784Z,29.00
2022-08-19T10:47:38.143Z,28.60
2022-08-19T10:51:46.585Z,28.60
2022-08-19T10:55:48.367Z,28.20
2022-08-19T10:59:35.731Z,28.30
2022-08-19T11:03:18.120Z,28.70
2022-08-19T11:07:00.370Z,28.40
2022-08-19T11:10:50.190Z,27.60
2022-08-19T11:14:34.817Z,26.70
2022-08-19T11:18:17.997Z,25.90
2022-08-19T11:22:02.441Z,25.40
2022-08-19T11:25:46.471Z,25.10
2022-08-19T11:29:28.903Z,25.30
2022-08-19T11:33:11.980Z,25.90
2022-08-19T11:36:55.716Z,26.90
2022-08-19T11:40:37.893Z,27.70
2022-08-19T11:44:20.481Z,28.30
2022-08-19T11:48:03.170Z,28.90
2022-08-19T11:51:45.403Z,29.40
2022-08-19T11:55:27.569Z,29.60
2022-08-19T11:59:14.471Z,30.00
2022-08-19T12:02:56.819Z,30.20
2022-08-19T12:06:40.602Z,30.10
2022-08-19T12:10:26.267Z,29.10
2022-08-19T12:14:14.661Z,28.50
2022-08-19T12:17:58.451Z,28.30
2022-08-19T12:21:41.307Z,28.30
2022-08-19T12:25:23.315Z,27.90
2022-08-19T12:29:05.819Z,27.20
2022-08-19T12:32:47.806Z,27.00
2022-08-19T12:36:30.192Z,27.10
2022-08-19T12:40:13.149Z,27.40
2022-08-19T12:43:55.108Z,27.50
2022-08-19T12:47:38.019Z,27.00
2022-08-19T12:51:22.803Z,26.40
2022-08-19T12:55:06.990Z,25.90
2022-08-19T12:58:50.645Z,26.20
2022-08-19T13:02:38.319Z,26.90
2022-08-19T13:06:21.496Z,27.50
2022-08-19T13:10:04.047Z,28.10
2022-08-19T13:13:48.433Z,28.00
2022-08-19T13:17:30.404Z,28.20
2022-08-19T13:21:14.024Z,28.90
2022-08-19T13:24:55.994Z,29.30
2022-08-19T13:28:56.626Z,29.20
2022-08-19T13:32:57.110Z,28.50
2022-08-19T13:36:39.736Z,27.70
2022-08-19T13:40:27.231Z,26.90
2022-08-19T13:44:09.627Z,26.60
2022-08-19T13:47:59.004Z,26.40
2022-08-19T13:51:43.021Z,26.20
2022-08-19T13:55:26.441Z,26.40
2022-08-19T13:59:08.776Z,26.70
2022-08-19T14:02:53.038Z,26.90
2022-08-19T14:06:35.281Z,27.40
2022-08-19T14:10:18.182Z,27.70
2022-08-19T14:14:00.161Z,28.00
2022-08-19T14:17:47.794Z,28.40
2022-08-19T14:21:29.871Z,28.20
2022-08-19T14:25:16.373Z,28.20
2022-08-19T14:28:58.839Z,28.20
2022-08-19T14:32:40.831Z,28.30
2022-08-19T14:36:22.993Z,28.50
2022-08-19T14:40:05.769Z,28.70
2022-08-19T14:43:50.869Z,28.90
2022-08-19T14:47:33.541Z,28.90
2022-08-19T14:51:15.575Z,28.80
2022-08-19T14:54:57.615Z,28.70
2022-08-19T14:58:43.284Z,28.70
2022-08-19T15:02:34.852Z,28.60
2022-08-19T15:06:17.180Z,28.70
2022-08-19T15:09:59.640Z,28.60
2022-08-19T15:13:42.268Z,28.60
2022-08-19T15:17:43.502Z,28.50
2022-08-19T15:21:28.770Z,28.40
2022-08-19T15:25:13.516Z,28.40
2022-08-19T15:28:57.009Z,28.30
2022-08-19T15:32:39.878Z,28.20
2022-08-19T15:36:21.799Z,28.10
2022-08-19T15:40:05.434Z,28.10
2022-08-19T15:43:48.973Z,28.00
2022-08-19T15:47:35.196Z,27.70
2022-08-19T15:51:18.447Z,27.30
2022-08-19T15:55:00.996Z,26.70
2022-08-19T15:59:01.746Z,26.30
2022-08-19T16:03:02.738Z,25.70
2022-08-19T16:06:52.187Z,25.30
2022-08-19T16:10:34.224Z,24.90
2022-08-19T16:14:18.622Z,24.60
2022-08-19T16:18:04.895Z,24.40
2022-08-19T16:21:48.266Z,24.20
2022-08-19T16:25:30.251Z,24.00
2022-08-19T16:29:13.206Z,23.70
2022-08-19T16:32:55.511Z,23.50
2022-08-19T16:36:41.903Z,23.40
2022-08-19T16:40:24.092Z,23.30
2022-08-19T16:44:07.943Z,23.10
2022-08-19T16:47:50.688Z,22.90
2022-08-19T16:51:33.835Z,22.60
2022-08-19T16:55:16.983Z,22.50
2022-08-19T16:58:59.919Z,22.40
2022-08-19T17:02:41.910Z,22.20
2022-08-19T17:06:26.920Z,22.10
2022-08-19T17:10:09.250Z,22.00
2022-08-19T17:13:51.807Z,21.90
2022-08-19T17:17:34.232Z,21.90
2022-08-19T17:21:16.147Z,21.80
2022-08-19T17:24:58.655Z,21.70
2022-08-19T17:28:40.725Z,21.60
2022-08-19T17:32:25.265Z,21.50
2022-08-19T17:36:08.139Z,21.40
2022-08-19T17:39:50.317Z,21.30
2022-08-19T17:43:35.452Z,21.40
2022-08-19T17:47:21.295Z,21.30
2022-08-19T17:51:25.763Z,21.30
2022-08-19T17:55:10.389Z,21.20
2022-08-19T17:59:00.331Z,21.00
2022-08-19T18:02:54.212Z,20.90
2022-08-19T18:06:36.821Z,20.80
2022-08-19T18:10:23.883Z,20.70
2022-08-19T18:14:16.752Z,20.60
2022-08-19T18:17:58.849Z,20.60
2022-08-19T18:21:40.896Z,20.50
2022-08-19T18:25:26.165Z,20.40
2022-08-19T18:29:09.466Z,20.30
2022-08-19T18:32:53.001Z,20.20
2022-08-19T18:36:52.875Z,20.10
2022-08-19T18:40:53.716Z,19.90
2022-08-19T18:44:59.611Z,19.80
2022-08-19T18:49:00.371Z,19.70
2022-08-19T18:52:42.426Z,19.50
2022-08-19T18:56:28.862Z,19.40
2022-08-19T19:00:11.486Z,19.30
2022-08-19T19:03:55.896Z,19.10
2022-08-19T19:07:37.855Z,19.00
2022-08-19T19:11:29.628Z,18.90
2022-08-19T19:15:12.777Z,18.90
2022-08-19T19:18:54.913Z,18.80
2022-08-19T19:22:36.942Z,18.90
2022-08-19T19:26:19.201Z,18.80
2022-08-19T19:30:01.201Z,18.80
2022-08-19T19:33:44.470Z,18.80
2022-08-19T19:37:26.457Z,18.80
2022-08-19T19:41:08.443Z,18.80
2022-08-19T19:44:52.616Z,18.70
2022-08-19T19:48:35.606Z,18.70
2022-08-19T19:52:17.919Z,18.60
2022-08-19T19:55:59.970Z,18.60
2022-08-19T19:59:44.839Z,18.50
2022-08-19T20:03:34.029Z,18.50
2022-08-19T20:07:15.968Z,18.50
2022-08-19T20:11:02.215Z,18.50
2022-08-19T20:14:44.155Z,18.50
2022-08-19T20:18:26.262Z,18.50
2022-08-19T20:22:08.390Z,18.50
2022-08-19T20:25:51.384Z,18.50
2022-08-19T20:29:39.527Z,18.40
2022-08-19T20:33:23.367Z,18.30
2022-08-19T20:37:05.708Z,18.20
2022-08-19T20:40:47.852Z,18.10
2022-08-19T20:44:29.735Z,18.00
2022-08-19T20:48:12.601Z,17.90
2022-08-19T20:51:58.459Z,17.80
2022-08-19T20:55:43.681Z,17.70
2022-08-19T20:59:27.162Z,17.60
2022-08-19T21:03:09.215Z,17.50
2022-08-19T21:06:51.419Z,17.50
2022-08-19T21:10:33.681Z,17.40
2022-08-19T21:14:17.481Z,17.30
2022-08-19T21:17:59.498Z,17.30
2022-08-19T21:21:41.447Z,17.30
2022-08-19T21:25:23.492Z,17.40
2022-08-19T21:29:05.553Z,17.40
2022-08-19T21:32:52.291Z,17.30
2022-08-19T21:36:34.574Z,17.30
2022-08-19T21:40:17.445Z,17.20
2022-08-19T21:43:59.450Z,17.20
2022-08-19T21:47:41.514Z,17.10
2022-08-19T21:51:23.540Z,17.00
2022-08-19T21:55:07.214Z,17.00
2022-08-19T21:58:49.468Z,17.00
2022-08-19T22:02:31.439Z,16.90
2022-08-19T22:06:13.367Z,16.80
2022-08-19T22:09:55.312Z,16.80
2022-08-19T22:13:40.601Z,16.80
2022-08-19T22:17:23.022Z,16.80
2022-08-19T22:21:11.265Z,16.70
2022-08-19T22:25:00.018Z,16.60
2022-08-19T22:28:43.016Z,16.60
2022-08-19T22:32:28.654Z,16.60
2022-08-19T22:36:11.002Z,16.60
2022-08-19T22:39:53.047Z,16.60
2022-08-19T22:43:37.527Z,16.60
2022-08-19T22:47:19.561Z,16.60
2022-08-19T22:51:19.908Z,16.60
2022-08-19T22:55:06.122Z,16.60
2022-08-19T22:58:50.648Z,16.60
2022-08-19T23:02:38.522Z,16.60
2022-08-19T23:06:35.653Z,16.50
2022-08-19T23:10:26.844Z,16.50
2022-08-19T23:14:12.619Z,16.40
2022-08-19T23:17:56.762Z,16.40
2022-08-19T23:21:41.554Z,16.30
2022-08-19T23:25:31.675Z,16.20
2022-08-19T23:29:31.947Z,16.20
2022-08-19T23:33:21.605Z,16.10
2022-08-19T23:37:03.638Z,16.00
2022-08-19T23:40:45.927Z,16.00
2022-08-19T23:44:28.626Z,16.00
2022-08-19T23:48:11.284Z,15.90
2022-08-19T23:51:54.591Z,15.80
2022-08-19T23:55:39.647Z,15.80
2022-08-19T23:59:21.934Z,15.80
